sensor_id;sensor_type;location;lat;lon;timestamp;P1;durP1;ratioP1;P2;durP2;ratioP2
35394;SDS011;21500;45.308;9.488;2022-09-09T00:02:22;14.57;;;13.18;;
35394;SDS011;21500;45.308;9.488;2022-09-09T00:10:16;15.13;;;13.15;;
35394;SDS011;21500;45.308;9.488;2022-09-09T00:15:20;15.90;;;13.68;;
35394;SDS011;21500;45.308;9.488;2022-09-09T00:23:19;17.58;;;13.88;;
35394;SDS011;21500;45.308;9.488;2022-09-09T00:28:36;19.88;;;14.57;;
35394;SDS011;21500;45.308;9.488;2022-09-09T00:31:23;17.55;;;14.80;;
35394;SDS011;21500;45.308;9.488;2022-09-09T00:33:53;17.50;;;14.07;;
35394;SDS011;21500;45.308;9.488;2022-09-09T00:36:21;18.38;;;14.82;;
35394;SDS011;21500;45.308;9.488;2022-09-09T00:38:57;19.67;;;16.07;;
35394;SDS011;21500;45.308;9.488;2022-09-09T00:52:16;15.48;;;13.85;;
35394;SDS011;21500;45.308;9.488;2022-09-09T00:57:58;18.05;;;16.17;;
35394;SDS011;21500;45.308;9.488;2022-09-09T01:10:53;18.52;;;15.77;;
35394;SDS011;21500;45.308;9.488;2022-09-09T01:13:27;25.75;;;16.40;;
35394;SDS011;21500;45.308;9.488;2022-09-09T01:16:04;20.40;;;17.40;;
35394;SDS011;21500;45.308;9.488;2022-09-09T01:18:36;20.05;;;16.35;;
35394;SDS011;21500;45.308;9.488;2022-09-09T01:27:14;25.45;;;17.92;;
35394;SDS011;21500;45.308;9.488;2022-09-09T01:29:41;23.80;;;17.77;;
35394;SDS011;21500;45.308;9.488;2022-09-09T01:35:07;25.13;;;18.10;;
35394;SDS011;21500;45.308;9.488;2022-09-09T01:37:37;19.92;;;17.35;;
35394;SDS011;21500;45.308;9.488;2022-09-09T01:40:03;19.83;;;17.73;;
35394;SDS011;21500;45.308;9.488;2022-09-09T01:42:31;20.65;;;18.42;;
35394;SDS011;21500;45.308;9.488;2022-09-09T01:44:58;21.42;;;18.90;;
35394;SDS011;21500;45.308;9.488;2022-09-09T01:47:24;22.83;;;19.83;;
35394;SDS011;21500;45.308;9.488;2022-09-09T01:50:06;21.55;;;18.95;;
35394;SDS011;21500;45.308;9.488;2022-09-09T01:52:36;21.52;;;18.08;;
35394;SDS011;21500;45.308;9.488;2022-09-09T01:55:05;21.63;;;17.88;;
35394;SDS011;21500;45.308;9.488;2022-09-09T01:57:46;21.25;;;19.00;;
35394;SDS011;21500;45.308;9.488;2022-09-09T02:00:27;22.63;;;17.33;;
35394;SDS011;21500;45.308;9.488;2022-09-09T02:03:14;20.38;;;18.23;;
35394;SDS011;21500;45.308;9.488;2022-09-09T02:08:50;22.67;;;18.08;;
35394;SDS011;21500;45.308;9.488;2022-09-09T02:14:00;21.83;;;19.10;;
35394;SDS011;21500;45.308;9.488;2022-09-09T02:16:44;22.85;;;18.48;;
35394;SDS011;21500;45.308;9.488;2022-09-09T02:19:13;22.52;;;18.17;;
35394;SDS011;21500;45.308;9.488;2022-09-09T02:22:06;21.75;;;19.45;;
35394;SDS011;21500;45.308;9.488;2022-09-09T02:24:35;24.30;;;20.48;;
35394;SDS011;21500;45.308;9.488;2022-09-09T02:27:24;23.02;;;20.25;;
35394;SDS011;21500;45.308;9.488;2022-09-09T02:29:51;24.08;;;20.50;;
35394;SDS011;21500;45.308;9.488;2022-09-09T02:32:30;26.08;;;21.77;;
35394;SDS011;21500;45.308;9.488;2022-09-09T02:35:04;25.90;;;22.13;;
35394;SDS011;21500;45.308;9.488;2022-09-09T02:37:38;28.58;;;24.02;;
35394;SDS011;21500;45.308;9.488;2022-09-09T02:40:07;26.80;;;22.90;;
35394;SDS011;21500;45.308;9.488;2022-09-09T02:42:43;25.30;;;21.95;;
35394;SDS011;21500;45.308;9.488;2022-09-09T02:45:12;27.95;;;24.77;;
35394;SDS011;21500;45.308;9.488;2022-09-09T02:51:21;25.67;;;22.98;;
35394;SDS011;21500;45.308;9.488;2022-09-09T02:53:52;31.55;;;24.52;;
35394;SDS011;21500;45.308;9.488;2022-09-09T02:56:29;30.95;;;25.10;;
35394;SDS011;21500;45.308;9.488;2022-09-09T02:59:05;27.02;;;23.90;;
35394;SDS011;21500;45.308;9.488;2022-09-09T03:01:33;28.17;;;23.98;;
35394;SDS011;21500;45.308;9.488;2022-09-09T03:04:01;25.23;;;22.63;;
35394;SDS011;21500;45.308;9.488;2022-09-09T03:06:30;27.33;;;23.10;;
35394;SDS011;21500;45.308;9.488;2022-09-09T03:09:05;31.08;;;23.45;;
35394;SDS011;21500;45.308;9.488;2022-09-09T03:11:31;28.52;;;23.40;;
35394;SDS011;21500;45.308;9.488;2022-09-09T03:13:57;28.42;;;25.17;;
35394;SDS011;21500;45.308;9.488;2022-09-09T03:16:25;24.67;;;21.75;;
35394;SDS011;21500;45.308;9.488;2022-09-09T03:18:52;28.45;;;23.58;;
35394;SDS011;21500;45.308;9.488;2022-09-09T03:21:19;32.42;;;24.13;;
35394;SDS011;21500;45.308;9.488;2022-09-09T03:23:45;26.65;;;21.95;;
35394;SDS011;21500;45.308;9.488;2022-09-09T03:26:11;24.35;;;21.73;;
35394;SDS011;21500;45.308;9.488;2022-09-09T03:28:42;26.95;;;23.58;;
35394;SDS011;21500;45.308;9.488;2022-09-09T03:31:08;27.67;;;22.67;;
35394;SDS011;21500;45.308;9.488;2022-09-09T03:33:38;26.60;;;23.15;;
35394;SDS011;21500;45.308;9.488;2022-09-09T03:36:06;30.40;;;24.23;;
35394;SDS011;21500;45.308;9.488;2022-09-09T03:38:34;29.10;;;24.02;;
35394;SDS011;21500;45.308;9.488;2022-09-09T03:41:00;29.95;;;24.17;;
35394;SDS011;21500;45.308;9.488;2022-09-09T03:43:28;29.40;;;23.60;;
35394;SDS011;21500;45.308;9.488;2022-09-09T03:45:54;29.80;;;24.70;;
35394;SDS011;21500;45.308;9.488;2022-09-09T03:48:25;28.88;;;22.45;;
35394;SDS011;21500;45.308;9.488;2022-09-09T03:50:53;28.20;;;23.13;;
35394;SDS011;21500;45.308;9.488;2022-09-09T03:53:22;29.30;;;23.73;;
35394;SDS011;21500;45.308;9.488;2022-09-09T03:55:51;24.70;;;21.02;;
35394;SDS011;21500;45.308;9.488;2022-09-09T04:00:53;23.15;;;19.63;;
35394;SDS011;21500;45.308;9.488;2022-09-09T04:03:25;25.25;;;19.65;;
35394;SDS011;21500;45.308;9.488;2022-09-09T04:05:52;24.75;;;20.05;;
35394;SDS011;21500;45.308;9.488;2022-09-09T04:08:19;28.17;;;20.67;;
35394;SDS011;21500;45.308;9.488;2022-09-09T04:10:49;26.40;;;20.70;;
35394;SDS011;21500;45.308;9.488;2022-09-09T04:13:17;29.75;;;20.77;;
35394;SDS011;21500;45.308;9.488;2022-09-09T04:15:44;24.95;;;18.75;;
35394;SDS011;21500;45.308;9.488;2022-09-09T04:18:24;24.85;;;18.63;;
35394;SDS011;21500;45.308;9.488;2022-09-09T04:20:51;21.88;;;18.38;;
35394;SDS011;21500;45.308;9.488;2022-09-09T04:23:21;27.15;;;20.33;;
35394;SDS011;21500;45.308;9.488;2022-09-09T04:25:50;23.30;;;20.05;;
35394;SDS011;21500;45.308;9.488;2022-09-09T04:28:18;22.05;;;18.27;;
35394;SDS011;21500;45.308;9.488;2022-09-09T04:30:46;21.48;;;18.88;;
35394;SDS011;21500;45.308;9.488;2022-09-09T04:33:13;23.38;;;20.35;;
35394;SDS011;21500;45.308;9.488;2022-09-09T04:35:43;28.05;;;21.80;;
35394;SDS011;21500;45.308;9.488;2022-09-09T04:38:14;22.63;;;18.55;;
35394;SDS011;21500;45.308;9.488;2022-09-09T04:40:47;23.02;;;19.17;;
35394;SDS011;21500;45.308;9.488;2022-09-09T04:43:13;27.58;;;22.23;;
35394;SDS011;21500;45.308;9.488;2022-09-09T04:45:42;32.42;;;22.45;;
35394;SDS011;21500;45.308;9.488;2022-09-09T04:48:08;32.15;;;23.02;;
35394;SDS011;21500;45.308;9.488;2022-09-09T04:50:37;26.77;;;20.88;;
35394;SDS011;21500;45.308;9.488;2022-09-09T04:53:04;33.80;;;24.13;;
35394;SDS011;21500;45.308;9.488;2022-09-09T04:55:31;30.33;;;23.10;;
35394;SDS011;21500;45.308;9.488;2022-09-09T04:58:03;34.75;;;22.05;;
35394;SDS011;21500;45.308;9.488;2022-09-09T05:00:33;30.40;;;22.90;;
35394;SDS011;21500;45.308;9.488;2022-09-09T05:03:05;32.35;;;22.55;;
35394;SDS011;21500;45.308;9.488;2022-09-09T05:05:33;24.95;;;21.27;;
35394;SDS011;21500;45.308;9.488;2022-09-09T05:08:03;26.42;;;19.98;;
35394;SDS011;21500;45.308;9.488;2022-09-09T05:10:30;27.60;;;22.42;;
35394;SDS011;21500;45.308;9.488;2022-09-09T05:12:58;30.75;;;23.75;;
35394;SDS011;21500;45.308;9.488;2022-09-09T05:15:27;27.38;;;21.83;;
35394;SDS011;21500;45.308;9.488;2022-09-09T05:17:56;30.10;;;22.13;;
35394;SDS011;21500;45.308;9.488;2022-09-09T05:20:24;30.98;;;22.80;;
35394;SDS011;21500;45.308;9.488;2022-09-09T05:22:52;27.52;;;20.85;;
35394;SDS011;21500;45.308;9.488;2022-09-09T05:25:21;31.73;;;23.50;;
35394;SDS011;21500;45.308;9.488;2022-09-09T05:27:47;32.63;;;24.23;;
35394;SDS011;21500;45.308;9.488;2022-09-09T05:30:14;24.58;;;21.75;;
35394;SDS011;21500;45.308;9.488;2022-09-09T05:32:41;28.15;;;21.25;;
35394;SDS011;21500;45.308;9.488;2022-09-09T05:35:09;25.13;;;21.95;;
35394;SDS011;21500;45.308;9.488;2022-09-09T05:37:35;27.95;;;23.10;;
35394;SDS011;21500;45.308;9.488;2022-09-09T05:40:01;29.58;;;22.45;;
35394;SDS011;21500;45.308;9.488;2022-09-09T05:42:31;27.00;;;21.05;;
35394;SDS011;21500;45.308;9.488;2022-09-09T05:44:58;30.00;;;23.00;;
35394;SDS011;21500;45.308;9.488;2022-09-09T05:47:24;30.60;;;22.13;;
35394;SDS011;21500;45.308;9.488;2022-09-09T05:49:53;26.60;;;21.55;;
35394;SDS011;21500;45.308;9.488;2022-09-09T05:52:20;26.33;;;20.50;;
35394;SDS011;21500;45.308;9.488;2022-09-09T05:54:46;33.03;;;20.50;;
35394;SDS011;21500;45.308;9.488;2022-09-09T05:57:12;33.30;;;19.92;;
35394;SDS011;21500;45.308;9.488;2022-09-09T05:59:38;27.85;;;20.02;;
35394;SDS011;21500;45.308;9.488;2022-09-09T06:02:04;22.50;;;19.05;;
35394;SDS011;21500;45.308;9.488;2022-09-09T06:04:34;23.33;;;18.67;;
35394;SDS011;21500;45.308;9.488;2022-09-09T06:07:01;26.25;;;18.83;;
35394;SDS011;21500;45.308;9.488;2022-09-09T06:09:27;21.52;;;17.52;;
35394;SDS011;21500;45.308;9.488;2022-09-09T06:11:54;23.33;;;17.15;;
35394;SDS011;21500;45.308;9.488;2022-09-09T06:14:21;25.33;;;18.67;;
35394;SDS011;21500;45.308;9.488;2022-09-09T06:16:49;20.83;;;17.75;;
35394;SDS011;21500;45.308;9.488;2022-09-09T06:19:21;22.65;;;18.23;;
35394;SDS011;21500;45.308;9.488;2022-09-09T06:21:47;21.77;;;17.67;;
35394;SDS011;21500;45.308;9.488;2022-09-09T06:24:14;22.65;;;18.13;;
35394;SDS011;21500;45.308;9.488;2022-09-09T06:26:43;21.50;;;18.30;;
35394;SDS011;21500;45.308;9.488;2022-09-09T06:29:17;20.48;;;17.65;;
35394;SDS011;21500;45.308;9.488;2022-09-09T06:31:44;20.15;;;16.48;;
35394;SDS011;21500;45.308;9.488;2022-09-09T06:34:16;24.77;;;18.60;;
35394;SDS011;21500;45.308;9.488;2022-09-09T06:36:46;23.88;;;19.17;;
35394;SDS011;21500;45.308;9.488;2022-09-09T06:39:12;29.88;;;18.38;;
35394;SDS011;21500;45.308;9.488;2022-09-09T06:41:41;26.10;;;17.83;;
35394;SDS011;21500;45.308;9.488;2022-09-09T06:44:17;22.17;;;19.27;;
35394;SDS011;21500;45.308;9.488;2022-09-09T06:46:43;24.67;;;20.30;;
35394;SDS011;21500;45.308;9.488;2022-09-09T06:49:12;27.52;;;20.95;;
35394;SDS011;21500;45.308;9.488;2022-09-09T06:51:38;25.75;;;20.70;;
35394;SDS011;21500;45.308;9.488;2022-09-09T06:54:10;30.05;;;19.95;;
35394;SDS011;21500;45.308;9.488;2022-09-09T06:56:38;30.55;;;18.10;;
35394;SDS011;21500;45.308;9.488;2022-09-09T06:59:15;21.85;;;17.77;;
35394;SDS011;21500;45.308;9.488;2022-09-09T07:01:41;23.10;;;16.80;;
35394;SDS011;21500;45.308;9.488;2022-09-09T07:04:15;26.55;;;16.40;;
35394;SDS011;21500;45.308;9.488;2022-09-09T07:06:44;21.70;;;16.23;;
35394;SDS011;21500;45.308;9.488;2022-09-09T07:09:15;19.33;;;15.40;;
35394;SDS011;21500;45.308;9.488;2022-09-09T07:11:48;19.15;;;16.27;;
35394;SDS011;21500;45.308;9.488;2022-09-09T07:14:19;25.27;;;16.58;;
35394;SDS011;21500;45.308;9.488;2022-09-09T07:16:50;12.70;;;9.93;;
35394;SDS011;21500;45.308;9.488;2022-09-09T07:19:17;6.38;;;5.57;;
35394;SDS011;21500;45.308;9.488;2022-09-09T07:21:45;3.67;;;2.03;;
35394;SDS011;21500;45.308;9.488;2022-09-09T07:24:13;2.00;;;1.42;;
35394;SDS011;21500;45.308;9.488;2022-09-09T07:26:41;3.45;;;1.20;;
35394;SDS011;21500;45.308;9.488;2022-09-09T07:29:07;1.88;;;0.95;;
35394;SDS011;21500;45.308;9.488;2022-09-09T07:31:34;1.33;;;1.10;;
35394;SDS011;21500;45.308;9.488;2022-09-09T07:34:04;3.30;;;0.70;;
35394;SDS011;21500;45.308;9.488;2022-09-09T07:36:32;2.58;;;1.23;;
35394;SDS011;21500;45.308;9.488;2022-09-09T07:39:01;1.48;;;1.35;;
35394;SDS011;21500;45.308;9.488;2022-09-09T07:41:36;1.50;;;0.60;;
35394;SDS011;21500;45.308;9.488;2022-09-09T07:44:12;1.25;;;0.85;;
35394;SDS011;21500;45.308;9.488;2022-09-09T07:46:45;0.95;;;0.50;;
35394;SDS011;21500;45.308;9.488;2022-09-09T07:49:16;1.65;;;0.77;;
35394;SDS011;21500;45.308;9.488;2022-09-09T07:51:44;3.20;;;0.68;;
35394;SDS011;21500;45.308;9.488;2022-09-09T07:54:13;1.38;;;0.70;;
35394;SDS011;21500;45.308;9.488;2022-09-09T07:56:42;2.80;;;0.68;;
35394;SDS011;21500;45.308;9.488;2022-09-09T07:59:09;3.22;;;0.77;;
35394;SDS011;21500;45.308;9.488;2022-09-09T08:01:37;1.17;;;0.50;;
35394;SDS011;21500;45.308;9.488;2022-09-09T08:04:10;1.77;;;0.95;;
35394;SDS011;21500;45.308;9.488;2022-09-09T08:06:43;3.00;;;0.75;;
35394;SDS011;21500;45.308;9.488;2022-09-09T08:09:11;2.78;;;0.43;;
35394;SDS011;21500;45.308;9.488;2022-09-09T08:11:38;0.88;;;0.50;;
35394;SDS011;21500;45.308;9.488;2022-09-09T08:14:05;0.85;;;0.40;;
35394;SDS011;21500;45.308;9.488;2022-09-09T08:16:37;21.38;;;1.38;;
35394;SDS011;21500;45.308;9.488;2022-09-09T08:19:05;2.78;;;0.50;;
35394;SDS011;21500;45.308;9.488;2022-09-09T08:21:33;3.05;;;0.75;;
35394;SDS011;21500;45.308;9.488;2022-09-09T08:24:02;2.60;;;0.45;;
35394;SDS011;21500;45.308;9.488;2022-09-09T08:26:32;1.17;;;0.55;;
35394;SDS011;21500;45.308;9.488;2022-09-09T08:29:01;1.33;;;0.50;;
35394;SDS011;21500;45.308;9.488;2022-09-09T08:31:29;2.40;;;0.65;;
35394;SDS011;21500;45.308;9.488;2022-09-09T08:33:57;1.70;;;0.60;;
35394;SDS011;21500;45.308;9.488;2022-09-09T08:36:25;1.25;;;0.47;;
35394;SDS011;21500;45.308;9.488;2022-09-09T08:38:53;1.65;;;0.40;;
35394;SDS011;21500;45.308;9.488;2022-09-09T08:52:23;0.93;;;0.43;;
35394;SDS011;21500;45.308;9.488;2022-09-09T08:54:58;2.95;;;0.57;;
35394;SDS011;21500;45.308;9.488;2022-09-09T08:57:40;1.98;;;0.57;;
35394;SDS011;21500;45.308;9.488;2022-09-09T09:00:09;2.80;;;0.60;;
35394;SDS011;21500;45.308;9.488;2022-09-09T09:06:11;1.80;;;0.70;;
35394;SDS011;21500;45.308;9.488;2022-09-09T09:11:23;2.05;;;0.50;;
35394;SDS011;21500;45.308;9.488;2022-09-09T09:13:54;2.22;;;0.60;;
35394;SDS011;21500;45.308;9.488;2022-09-09T09:19:18;0.90;;;0.80;;
35394;SDS011;21500;45.308;9.488;2022-09-09T09:21:51;1.30;;;0.95;;
35394;SDS011;21500;45.308;9.488;2022-09-09T09:26:46;1.45;;;1.00;;
35394;SDS011;21500;45.308;9.488;2022-09-09T09:29:16;3.72;;;1.15;;
35394;SDS011;21500;45.308;9.488;2022-09-09T09:31:45;2.60;;;1.10;;
35394;SDS011;21500;45.308;9.488;2022-09-09T09:34:25;2.13;;;0.90;;
35394;SDS011;21500;45.308;9.488;2022-09-09T09:36:58;1.98;;;1.15;;
35394;SDS011;21500;45.308;9.488;2022-09-09T09:39:31;2.30;;;1.13;;
35394;SDS011;21500;45.308;9.488;2022-09-09T09:42:11;1.70;;;1.27;;
35394;SDS011;21500;45.308;9.488;2022-09-09T09:44:41;4.28;;;1.73;;
35394;SDS011;21500;45.308;9.488;2022-09-09T09:47:19;3.50;;;1.73;;
35394;SDS011;21500;45.308;9.488;2022-09-09T09:50:16;1.10;;;0.80;;
35394;SDS011;21500;45.308;9.488;2022-09-09T09:52:53;1.73;;;1.00;;
35394;SDS011;21500;45.308;9.488;2022-09-09T09:55:24;2.90;;;0.63;;
35394;SDS011;21500;45.308;9.488;2022-09-09T09:57:51;4.05;;;1.15;;
35394;SDS011;21500;45.308;9.488;2022-09-09T10:00:20;1.48;;;0.93;;
35394;SDS011;21500;45.308;9.488;2022-09-09T10:03:12;1.35;;;0.75;;
35394;SDS011;21500;45.308;9.488;2022-09-09T10:06:03;1.42;;;0.52;;
35394;SDS011;21500;45.308;9.488;2022-09-09T10:08:33;0.45;;;0.43;;
35394;SDS011;21500;45.308;9.488;2022-09-09T10:14:04;6.68;;;0.82;;
35394;SDS011;21500;45.308;9.488;2022-09-09T10:36:24;3.78;;;0.70;;
35394;SDS011;21500;45.308;9.488;2022-09-09T10:39:15;1.77;;;0.65;;
35394;SDS011;21500;45.308;9.488;2022-09-09T10:56:17;2.72;;;1.00;;
35394;SDS011;21500;45.308;9.488;2022-09-09T16:55:37;7.32;;;1.90;;
35394;SDS011;21500;45.308;9.488;2022-09-09T17:00:30;6.10;;;2.25;;
35394;SDS011;21500;45.308;9.488;2022-09-09T17:02:56;2.35;;;1.02;;
35394;SDS011;21500;45.308;9.488;2022-09-09T17:05:22;4.68;;;2.30;;
35394;SDS011;21500;45.308;9.488;2022-09-09T17:07:48;7.85;;;1.95;;
35394;SDS011;21500;45.308;9.488;2022-09-09T17:10:14;3.28;;;1.20;;
35394;SDS011;21500;45.308;9.488;2022-09-09T17:12:40;6.25;;;1.27;;
35394;SDS011;21500;45.308;9.488;2022-09-09T17:15:06;2.20;;;1.20;;
35394;SDS011;21500;45.308;9.488;2022-09-09T17:17:32;5.07;;;1.27;;
35394;SDS011;21500;45.308;9.488;2022-09-09T17:19:58;4.45;;;1.60;;
35394;SDS011;21500;45.308;9.488;2022-09-09T17:22:24;3.80;;;1.40;;
35394;SDS011;21500;45.308;9.488;2022-09-09T17:24:51;3.47;;;1.60;;
35394;SDS011;21500;45.308;9.488;2022-09-09T17:27:16;11.40;;;1.50;;
35394;SDS011;21500;45.308;9.488;2022-09-09T17:29:42;3.03;;;1.27;;
35394;SDS011;21500;45.308;9.488;2022-09-09T17:32:08;4.70;;;1.70;;
35394;SDS011;21500;45.308;9.488;2022-09-09T17:34:34;2.42;;;1.63;;
35394;SDS011;21500;45.308;9.488;2022-09-09T17:37:00;3.53;;;1.75;;
35394;SDS011;21500;45.308;9.488;2022-09-09T17:39:26;4.60;;;1.67;;
35394;SDS011;21500;45.308;9.488;2022-09-09T18:38:28;4.93;;;1.85;;
35394;SDS011;21500;45.308;9.488;2022-09-09T18:40:58;3.55;;;2.10;;
35394;SDS011;21500;45.308;9.488;2022-09-09T18:43:23;3.90;;;2.08;;
35394;SDS011;21500;45.308;9.488;2022-09-09T18:45:49;6.03;;;2.30;;
35394;SDS011;21500;45.308;9.488;2022-09-09T18:48:15;6.05;;;2.30;;
35394;SDS011;21500;45.308;9.488;2022-09-09T18:50:40;5.78;;;2.20;;
35394;SDS011;21500;45.308;9.488;2022-09-09T18:53:06;6.85;;;3.33;;
35394;SDS011;21500;45.308;9.488;2022-09-09T18:55:32;5.25;;;2.70;;
35394;SDS011;21500;45.308;9.488;2022-09-09T18:57:58;3.53;;;2.42;;
35394;SDS011;21500;45.308;9.488;2022-09-09T19:00:24;8.27;;;2.80;;
35394;SDS011;21500;45.308;9.488;2022-09-09T19:02:50;5.50;;;3.00;;
35394;SDS011;21500;45.308;9.488;2022-09-09T19:05:17;6.05;;;3.00;;
35394;SDS011;21500;45.308;9.488;2022-09-09T19:07:43;5.60;;;2.92;;
35394;SDS011;21500;45.308;9.488;2022-09-09T19:10:09;7.13;;;3.40;;
35394;SDS011;21500;45.308;9.488;2022-09-09T19:12:35;6.95;;;2.92;;
35394;SDS011;21500;45.308;9.488;2022-09-09T19:15:00;5.60;;;3.25;;
35394;SDS011;21500;45.308;9.488;2022-09-09T19:17:26;5.53;;;3.40;;
35394;SDS011;21500;45.308;9.488;2022-09-09T19:19:54;4.22;;;3.50;;
35394;SDS011;21500;45.308;9.488;2022-09-09T19:22:20;6.18;;;3.40;;
35394;SDS011;21500;45.308;9.488;2022-09-09T19:24:46;6.43;;;4.03;;
35394;SDS011;21500;45.308;9.488;2022-09-09T19:27:12;5.47;;;4.90;;
35394;SDS011;21500;45.308;9.488;2022-09-09T19:29:37;9.02;;;3.85;;
35394;SDS011;21500;45.308;9.488;2022-09-09T19:32:03;6.55;;;4.82;;
35394;SDS011;21500;45.308;9.488;2022-09-09T19:34:30;5.68;;;3.97;;
35394;SDS011;21500;45.308;9.488;2022-09-09T19:36:55;6.82;;;4.53;;
35394;SDS011;21500;45.308;9.488;2022-09-09T19:39:21;6.72;;;4.47;;
35394;SDS011;21500;45.308;9.488;2022-09-09T19:41:47;5.55;;;4.05;;
35394;SDS011;21500;45.308;9.488;2022-09-09T19:44:14;6.07;;;3.85;;
35394;SDS011;21500;45.308;9.488;2022-09-09T19:46:41;8.98;;;4.72;;
35394;SDS011;21500;45.308;9.488;2022-09-09T19:49:09;6.35;;;3.92;;
35394;SDS011;21500;45.308;9.488;2022-09-09T19:51:35;6.22;;;4.38;;
35394;SDS011;21500;45.308;9.488;2022-09-09T19:54:02;9.05;;;4.05;;
35394;SDS011;21500;45.308;9.488;2022-09-09T19:56:31;10.27;;;4.53;;
35394;SDS011;21500;45.308;9.488;2022-09-09T19:58:58;7.15;;;5.65;;
35394;SDS011;21500;45.308;9.488;2022-09-09T20:01:25;14.25;;;5.53;;
35394;SDS011;21500;45.308;9.488;2022-09-09T20:03:53;10.55;;;4.10;;
35394;SDS011;21500;45.308;9.488;2022-09-09T20:06:21;7.72;;;4.68;;
35394;SDS011;21500;45.308;9.488;2022-09-09T20:08:50;6.30;;;4.50;;
35394;SDS011;21500;45.308;9.488;2022-09-09T20:11:17;9.63;;;5.35;;
35394;SDS011;21500;45.308;9.488;2022-09-09T20:13:44;7.70;;;5.80;;
35394;SDS011;21500;45.308;9.488;2022-09-09T20:16:12;7.15;;;4.57;;
35394;SDS011;21500;45.308;9.488;2022-09-09T20:24:03;13.15;;;5.88;;
35394;SDS011;21500;45.308;9.488;2022-09-09T20:26:32;8.45;;;5.38;;
35394;SDS011;21500;45.308;9.488;2022-09-09T20:29:06;7.82;;;5.25;;
35394;SDS011;21500;45.308;9.488;2022-09-09T20:31:35;15.52;;;5.85;;
35394;SDS011;21500;45.308;9.488;2022-09-09T20:34:09;8.63;;;6.00;;
35394;SDS011;21500;45.308;9.488;2022-09-09T20:36:37;11.55;;;6.63;;
35394;SDS011;21500;45.308;9.488;2022-09-09T20:39:04;7.22;;;5.28;;
35394;SDS011;21500;45.308;9.488;2022-09-09T20:41:36;7.50;;;6.35;;
35394;SDS011;21500;45.308;9.488;2022-09-09T20:44:07;8.07;;;6.07;;
35394;SDS011;21500;45.308;9.488;2022-09-09T20:46:37;8.68;;;6.05;;
35394;SDS011;21500;45.308;9.488;2022-09-09T20:49:23;9.57;;;7.30;;
35394;SDS011;21500;45.308;9.488;2022-09-09T20:51:52;11.43;;;7.18;;
35394;SDS011;21500;45.308;9.488;2022-09-09T20:54:22;9.98;;;6.60;;
35394;SDS011;21500;45.308;9.488;2022-09-09T20:56:50;9.32;;;6.72;;
35394;SDS011;21500;45.308;9.488;2022-09-09T20:59:21;10.80;;;7.68;;
35394;SDS011;21500;45.308;9.488;2022-09-09T21:01:48;12.55;;;8.48;;
35394;SDS011;21500;45.308;9.488;2022-09-09T21:04:15;9.68;;;8.57;;
35394;SDS011;21500;45.308;9.488;2022-09-09T21:06:44;13.00;;;9.02;;
35394;SDS011;21500;45.308;9.488;2022-09-09T21:09:10;11.63;;;8.18;;
35394;SDS011;21500;45.308;9.488;2022-09-09T21:11:37;13.68;;;10.35;;
35394;SDS011;21500;45.308;9.488;2022-09-09T21:14:04;9.35;;;8.00;;
35394;SDS011;21500;45.308;9.488;2022-09-09T21:16:30;10.95;;;7.38;;
35394;SDS011;21500;45.308;9.488;2022-09-09T21:18:56;9.20;;;7.70;;
35394;SDS011;21500;45.308;9.488;2022-09-09T21:21:26;8.38;;;7.15;;
35394;SDS011;21500;45.308;9.488;2022-09-09T21:23:59;12.43;;;9.90;;
35394;SDS011;21500;45.308;9.488;2022-09-09T21:26:26;12.25;;;7.88;;
35394;SDS011;21500;45.308;9.488;2022-09-09T21:28:52;14.77;;;8.02;;
35394;SDS011;21500;45.308;9.488;2022-09-09T21:31:20;9.48;;;7.82;;
35394;SDS011;21500;45.308;9.488;2022-09-09T21:33:49;7.65;;;6.95;;
35394;SDS011;21500;45.308;9.488;2022-09-09T21:36:18;7.65;;;6.85;;
35394;SDS011;21500;45.308;9.488;2022-09-09T21:38:44;11.10;;;7.90;;
35394;SDS011;21500;45.308;9.488;2022-09-09T21:41:12;9.57;;;7.68;;
35394;SDS011;21500;45.308;9.488;2022-09-09T21:43:43;9.43;;;7.15;;
35394;SDS011;21500;45.308;9.488;2022-09-09T21:48:38;10.93;;;7.25;;
35394;SDS011;21500;45.308;9.488;2022-09-09T21:51:05;9.15;;;7.20;;
35394;SDS011;21500;45.308;9.488;2022-09-09T21:53:33;8.05;;;7.25;;
35394;SDS011;21500;45.308;9.488;2022-09-09T21:56:03;12.18;;;8.52;;
35394;SDS011;21500;45.308;9.488;2022-09-09T21:58:52;9.38;;;6.63;;
35394;SDS011;21500;45.308;9.488;2022-09-09T22:01:22;11.30;;;8.25;;
35394;SDS011;21500;45.308;9.488;2022-09-09T22:03:49;10.82;;;7.13;;
35394;SDS011;21500;45.308;9.488;2022-09-09T22:06:15;6.95;;;6.05;;
35394;SDS011;21500;45.308;9.488;2022-09-09T22:08:43;11.10;;;7.63;;
35394;SDS011;21500;45.308;9.488;2022-09-09T22:11:14;8.27;;;6.93;;
35394;SDS011;21500;45.308;9.488;2022-09-09T22:13:43;8.48;;;7.57;;
35394;SDS011;21500;45.308;9.488;2022-09-09T22:16:16;8.43;;;6.45;;
35394;SDS011;21500;45.308;9.488;2022-09-09T22:18:49;14.35;;;6.22;;
35394;SDS011;21500;45.308;9.488;2022-09-09T22:21:27;9.82;;;8.10;;
35394;SDS011;21500;45.308;9.488;2022-09-09T22:23:58;8.95;;;6.97;;
35394;SDS011;21500;45.308;9.488;2022-09-09T22:26:25;10.23;;;7.50;;
35394;SDS011;21500;45.308;9.488;2022-09-09T22:28:53;7.63;;;6.55;;
35394;SDS011;21500;45.308;9.488;2022-09-09T22:31:21;9.65;;;7.22;;
35394;SDS011;21500;45.308;9.488;2022-09-09T22:33:49;7.18;;;6.47;;
35394;SDS011;21500;45.308;9.488;2022-09-09T22:36:19;8.65;;;6.65;;
35394;SDS011;21500;45.308;9.488;2022-09-09T22:38:45;6.93;;;6.22;;
35394;SDS011;21500;45.308;9.488;2022-09-09T22:41:14;9.13;;;7.00;;
35394;SDS011;21500;45.308;9.488;2022-09-09T22:43:56;10.68;;;7.22;;
35394;SDS011;21500;45.308;9.488;2022-09-09T22:46:29;9.07;;;6.20;;
35394;SDS011;21500;45.308;9.488;2022-09-09T22:49:02;7.88;;;6.90;;
35394;SDS011;21500;45.308;9.488;2022-09-09T22:51:55;10.23;;;7.43;;
35394;SDS011;21500;45.308;9.488;2022-09-09T22:54:36;7.72;;;6.95;;
35394;SDS011;21500;45.308;9.488;2022-09-09T22:57:17;8.35;;;6.55;;
35394;SDS011;21500;45.308;9.488;2022-09-09T22:59:47;7.35;;;6.45;;
35394;SDS011;21500;45.308;9.488;2022-09-09T23:02:56;10.95;;;8.05;;
35394;SDS011;21500;45.308;9.488;2022-09-09T23:09:15;7.75;;;6.13;;
35394;SDS011;21500;45.308;9.488;2022-09-09T23:11:52;11.02;;;6.65;;
35394;SDS011;21500;45.308;9.488;2022-09-09T23:14:34;7.95;;;7.10;;
35394;SDS011;21500;45.308;9.488;2022-09-09T23:17:20;7.35;;;5.78;;
35394;SDS011;21500;45.308;9.488;2022-09-09T23:20:08;7.93;;;6.07;;
35394;SDS011;21500;45.308;9.488;2022-09-09T23:26:29;9.60;;;5.20;;
35394;SDS011;21500;45.308;9.488;2022-09-09T23:29:03;8.70;;;4.70;;
35394;SDS011;21500;45.308;9.488;2022-09-09T23:31:56;6.45;;;4.03;;
35394;SDS011;21500;45.308;9.488;2022-09-09T23:34:22;7.32;;;4.25;;
35394;SDS011;21500;45.308;9.488;2022-09-09T23:36:48;6.03;;;3.75;;
35394;SDS011;21500;45.308;9.488;2022-09-09T23:39:14;7.10;;;3.65;;
35394;SDS011;21500;45.308;9.488;2022-09-09T23:41:40;4.88;;;2.47;;
35394;SDS011;21500;45.308;9.488;2022-09-09T23:44:06;8.52;;;2.10;;
35394;SDS011;21500;45.308;9.488;2022-09-09T23:46:33;2.60;;;1.90;;
35394;SDS011;21500;45.308;9.488;2022-09-09T23:49:01;3.55;;;1.98;;
35394;SDS011;21500;45.308;9.488;2022-09-09T23:51:28;2.90;;;2.05;;
35394;SDS011;21500;45.308;9.488;2022-09-09T23:53:56;3.20;;;1.88;;
35394;SDS011;21500;45.308;9.488;2022-09-09T23:56:26;3.38;;;1.48;;
35394;SDS011;21500;45.308;9.488;2022-09-09T23:58:53;4.55;;;1.65;;
